Wetterstation Vordersexau
Wetterdaten: Woche 05.12.16 - 11.12.16 (KW49)
Datum Zeit Temp. A. Feuchte A. Luftdruck Regen Wind Richtung Taupunkt Windchill Windben
05.12.2016 00:00 -4,6 C 86 % 1023,9 hPa 0,0 l/m 0,0 km/h N-NW -6,6 C -4,6 C 0,0 km/h
05.12.2016 01:00 -4,8 C 86 % 1023,7 hPa 0,0 l/m 0,0 km/h N-NW -6,8 C -4,8 C 0,0 km/h
05.12.2016 02:00 -5,2 C 86 % 1023,4 hPa 0,0 l/m 0,0 km/h N-NW -7,2 C -5,2 C 0,0 km/h
05.12.2016 03:00 -5,3 C 86 % 1023,8 hPa 0,0 l/m 0,0 km/h N-NW -7,3 C -5,3 C 0,0 km/h
05.12.2016 04:00 -5,4 C 86 % 1023,6 hPa 0,0 l/m 0,0 km/h N-NW -7,4 C -5,4 C 0,0 km/h
05.12.2016 05:00 -5,9 C 86 % 1023,6 hPa 0,0 l/m 0,0 km/h N-NW -7,9 C -5,9 C 0,0 km/h
05.12.2016 06:00 -5,9 C 86 % 1023,7 hPa 0,0 l/m 0,0 km/h N-NW -7,9 C -5,9 C 0,0 km/h
05.12.2016 07:00 -5,9 C 87 % 1023,9 hPa 0,0 l/m 0,0 km/h N-NW -7,7 C -5,9 C 0,0 km/h
05.12.2016 08:00 -6,5 C 87 % 1024,5 hPa 0,0 l/m 0,0 km/h N-NW -8,3 C -6,5 C 0,0 km/h
05.12.2016 09:00 -2,2 C 85 % 1024,6 hPa 0,0 l/m 0,0 km/h N-NW -4,4 C -2,2 C 0,0 km/h
05.12.2016 10:00 0,9 C 84 % 1025,1 hPa 0,0 l/m 0,0 km/h N-NW -1,5 C 0,9 C 0,0 km/h
05.12.2016 11:00 4,1 C 76 % 1025,0 hPa 0,0 l/m 0,0 km/h N-NW 0,3 C 4,1 C 0,0 km/h
05.12.2016 12:00 5,8 C 70 % 1024,8 hPa 0,0 l/m 0,0 km/h N-NW 0,8 C 5,8 C 0,0 km/h
05.12.2016 13:00 5,9 C 69 % 1024,2 hPa 0,0 l/m 0,0 km/h W-NW 0,7 C 5,9 C 0,0 km/h
05.12.2016 14:00 5,4 C 68 % 1024,2 hPa 0,0 l/m 0,0 km/h W-NW -0,0 C 5,4 C 0,0 km/h
05.12.2016 15:00 5,3 C 67 % 1024,1 hPa 0,0 l/m 0,0 km/h W-NW -0,3 C 5,3 C 0,0 km/h
05.12.2016 16:00 -1,2 C 82 % 1024,3 hPa 0,0 l/m 0,0 km/h W-NW -3,9 C -1,2 C 0,0 km/h
05.12.2016 17:00 -2,1 C 85 % 1024,8 hPa 0,0 l/m 0,0 km/h W-NW -4,3 C -2,1 C 0,0 km/h
05.12.2016 18:00 -2,5 C 85 % 1024,9 hPa 0,0 l/m 0,0 km/h W-NW -4,7 C -2,5 C 0,0 km/h
05.12.2016 19:00 -2,6 C 86 % 1024,9 hPa 0,0 l/m 0,0 km/h W-NW -4,6 C -2,6 C 0,0 km/h
05.12.2016 20:00 -2,7 C 86 % 1025,1 hPa 0,0 l/m 0,0 km/h W-NW -4,7 C -2,7 C 0,0 km/h
05.12.2016 21:00 -2,8 C 86 % 1025,5 hPa 0,0 l/m 0,0 km/h W-NW -4,8 C -2,8 C 0,0 km/h
05.12.2016 22:00 -2,8 C 86 % 1025,7 hPa 0,0 l/m 0,0 km/h W-NW -4,8 C -2,8 C 0,0 km/h
05.12.2016 23:00 -3,0 C 86 % 1025,9 hPa 0,0 l/m 0,0 km/h W-NW -5,0 C -3,0 C 0,0 km/h
06.12.2016 00:00 -3,1 C 86 % 1026,0 hPa 0,0 l/m 0,0 km/h W-NW -5,1 C -3,1 C 0,0 km/h
06.12.2016 01:00 -3,1 C 86 % 1026,0 hPa 0,0 l/m 0,0 km/h W-NW -5,1 C -3,1 C 0,0 km/h
06.12.2016 02:00 -3,2 C 86 % 1026,1 hPa 0,0 l/m 0,0 km/h W-NW -5,2 C -3,2 C 0,0 km/h
06.12.2016 03:00 -3,3 C 86 % 1026,4 hPa 0,0 l/m 0,0 km/h W-NW -5,3 C -3,3 C 0,0 km/h
06.12.2016 04:00 -3,8 C 86 % 1026,7 hPa 0,0 l/m 0,0 km/h W-NW -5,8 C -3,8 C 0,0 km/h
06.12.2016 05:00 -3,8 C 86 % 1026,9 hPa 0,0 l/m 0,0 km/h W-NW -5,8 C -3,8 C 0,0 km/h
06.12.2016 06:00 -4,1 C 86 % 1027,1 hPa 0,0 l/m 0,0 km/h W-NW -6,1 C -4,1 C 0,0 km/h
06.12.2016 07:00 -4,7 C 87 % 1027,5 hPa 0,0 l/m 0,0 km/h W-NW -6,5 C -4,7 C 0,0 km/h
06.12.2016 08:00 -5,4 C 86 % 1027,7 hPa 0,0 l/m 0,0 km/h W-NW -7,4 C -5,4 C 0,0 km/h
06.12.2016 09:00 -2,7 C 84 % 1028,1 hPa 0,0 l/m 0,0 km/h W-NW -5,0 C -2,7 C 0,0 km/h
06.12.2016 10:00 0,2 C 86 % 1028,7 hPa 0,0 l/m 0,0 km/h W-NW -1,9 C 0,2 C 0,0 km/h
06.12.2016 11:00 4,2 C 78 % 1028,4 hPa 0,0 l/m 0,0 km/h W 0,7 C 4,2 C 0,0 km/h
06.12.2016 12:00 4,4 C 73 % 1028,4 hPa 0,0 l/m 0,0 km/h NW -0,0 C 4,4 C 0,0 km/h
06.12.2016 13:00 0,2 C 80 % 1028,3 hPa 0,0 l/m 0,0 km/h N-NW -2,8 C 0,2 C 0,0 km/h
06.12.2016 14:00 -0,4 C 83 % 1028,2 hPa 0,0 l/m 0,0 km/h N-NW -2,9 C -0,4 C 0,0 km/h
06.12.2016 15:00 -1,1 C 85 % 1028,4 hPa 0,0 l/m 0,0 km/h NW -3,3 C -1,1 C 0,0 km/h
06.12.2016 16:00 -1,8 C 86 % 1028,8 hPa 0,0 l/m 0,0 km/h NW -3,8 C -1,8 C 0,0 km/h
06.12.2016 17:00 -1,9 C 86 % 1029,2 hPa 0,0 l/m 0,0 km/h S -3,9 C -1,9 C 0,0 km/h
06.12.2016 18:00 -2,1 C 86 % 1029,6 hPa 0,0 l/m 0,0 km/h W-SW -4,1 C -2,1 C 0,0 km/h
06.12.2016 19:00 -2,2 C 86 % 1029,9 hPa 0,0 l/m 0,0 km/h S-SO -4,2 C -2,2 C 0,0 km/h
06.12.2016 20:00 -2,2 C 86 % 1030,2 hPa 0,0 l/m 0,0 km/h W -4,2 C -2,2 C 0,0 km/h
06.12.2016 21:00 -2,4 C 86 % 1030,5 hPa 0,0 l/m 0,0 km/h W -4,4 C -2,4 C 0,0 km/h
06.12.2016 22:00 -2,4 C 86 % 1029,9 hPa 0,0 l/m 0,0 km/h NW -4,4 C -2,4 C 0,0 km/h
06.12.2016 23:00 -2,5 C 85 % 1030,5 hPa 0,0 l/m 0,0 km/h NW -4,7 C -2,5 C 0,0 km/h
07.12.2016 00:00 -2,8 C 85 % 1030,9 hPa 0,0 l/m 0,0 km/h O-SO -5,0 C -2,8 C 0,0 km/h
07.12.2016 01:00 -2,8 C 85 % 1030,9 hPa 0,0 l/m 0,0 km/h SO -5,0 C -2,8 C 0,0 km/h
07.12.2016 02:00 -2,7 C 85 % 1031,0 hPa 0,0 l/m 0,0 km/h O-NO -4,9 C -2,7 C 0,0 km/h
07.12.2016 03:00 -2,8 C 85 % 1031,4 hPa 0,0 l/m 0,0 km/h NO -5,0 C -2,8 C 0,0 km/h
07.12.2016 04:00 -3,1 C 84 % 1031,7 hPa 0,0 l/m 0,0 km/h O-NO -5,4 C -3,1 C 0,0 km/h
07.12.2016 05:00 -3,1 C 84 % 1032,1 hPa 0,0 l/m 0,0 km/h SO -5,4 C -3,1 C 0,0 km/h
07.12.2016 06:00 -3,3 C 84 % 1031,8 hPa 0,0 l/m 0,0 km/h SO -5,6 C -3,3 C 0,0 km/h
07.12.2016 07:00 -3,4 C 84 % 1031,7 hPa 0,0 l/m 0,0 km/h SO -5,7 C -3,4 C 0,0 km/h
07.12.2016 08:00 -3,3 C 84 % 1031,7 hPa 0,0 l/m 0,0 km/h SO -5,6 C -3,3 C 0,0 km/h
07.12.2016 09:00 -3,1 C 84 % 1031,9 hPa 0,0 l/m 0,0 km/h SO -5,4 C -3,1 C 0,0 km/h
07.12.2016 10:00 -2,3 C 83 % 1031,8 hPa 0,0 l/m 0,0 km/h SO -4,8 C -2,3 C 0,0 km/h
07.12.2016 11:00 -1,7 C 83 % 1031,5 hPa 0,0 l/m 0,0 km/h O -4,2 C -1,7 C 0,0 km/h
07.12.2016 12:00 -1,6 C 83 % 1031,2 hPa 0,0 l/m 0,0 km/h N-NO -4,1 C -1,6 C 0,0 km/h
07.12.2016 13:00 -1,6 C 84 % 1031,2 hPa 0,0 l/m 0,0 km/h N-NW -3,9 C -1,6 C 0,0 km/h
07.12.2016 14:00 -1,4 C 84 % 1030,9 hPa 0,0 l/m 0,0 km/h N-NW -3,7 C -1,4 C 0,0 km/h
07.12.2016 15:00 -1,7 C 85 % 1031,1 hPa 0,0 l/m 0,0 km/h N-NW -3,9 C -1,7 C 0,0 km/h
07.12.2016 16:00 -1,8 C 85 % 1031,4 hPa 0,0 l/m 0,0 km/h S-SO -4,0 C -1,8 C 0,0 km/h
07.12.2016 17:00 -2,2 C 85 % 1032,2 hPa 0,0 l/m 0,0 km/h S-SO -4,4 C -2,2 C 0,0 km/h
07.12.2016 18:00 -2,1 C 85 % 1031,9 hPa 0,0 l/m 0,0 km/h S-SO -4,3 C -2,1 C 0,0 km/h
07.12.2016 19:00 -2,1 C 85 % 1032,6 hPa 0,0 l/m 0,0 km/h S-SO -4,3 C -2,1 C 0,0 km/h
07.12.2016 20:00 -1,9 C 84 % 1032,8 hPa 0,0 l/m 0,0 km/h W-NW -4,2 C -1,9 C 0,0 km/h
07.12.2016 21:00 -2,1 C 83 % 1033,0 hPa 0,0 l/m 0,0 km/h S -4,6 C -2,1 C 0,0 km/h
07.12.2016 22:00 -2,1 C 83 % 1032,7 hPa 0,0 l/m 0,0 km/h SO -4,6 C -2,1 C 0,0 km/h
07.12.2016 23:00 -2,1 C 83 % 1032,3 hPa 0,0 l/m 0,0 km/h SO -4,6 C -2,1 C 0,0 km/h
08.12.2016 00:00 -2,3 C 83 % 1032,2 hPa 0,0 l/m 0,0 km/h SO -4,8 C -2,3 C 0,0 km/h
08.12.2016 01:00 -2,4 C 83 % 1031,9 hPa 0,0 l/m 0,0 km/h O-NO -4,9 C -2,4 C 0,0 km/h
08.12.2016 02:00 -2,4 C 83 % 1032,6 hPa 0,0 l/m 0,0 km/h O-NO -4,9 C -2,4 C 0,0 km/h
08.12.2016 03:00 -2,9 C 83 % 1032,3 hPa 0,0 l/m 0,0 km/h O-NO -5,4 C -2,9 C 0,0 km/h
08.12.2016 04:00 -4,1 C 83 % 1031,9 hPa 0,0 l/m 0,0 km/h O-NO -6,5 C -4,1 C 0,0 km/h
08.12.2016 05:00 -3,6 C 83 % 1031,8 hPa 0,0 l/m 0,0 km/h O-NO -6,1 C -3,6 C 0,0 km/h
08.12.2016 06:00 -4,0 C 83 % 1031,7 hPa 0,0 l/m 0,0 km/h O-NO -6,4 C -4,0 C 0,0 km/h
08.12.2016 07:00 -5,1 C 84 % 1031,8 hPa 0,0 l/m 0,0 km/h O-NO -7,4 C -5,1 C 0,0 km/h
08.12.2016 08:00 -5,3 C 84 % 1031,6 hPa 0,0 l/m 0,0 km/h O-NO -7,6 C -5,3 C 0,0 km/h
08.12.2016 09:00 -1,5 C 79 % 1031,3 hPa 0,0 l/m 0,0 km/h S-SW -4,7 C -1,5 C 0,0 km/h
08.12.2016 10:00 2,6 C 86 % 1031,6 hPa 0,0 l/m 0,0 km/h S 0,5 C 2,6 C 0,0 km/h
08.12.2016 11:00 7,0 C 82 % 1031,3 hPa 0,0 l/m 0,0 km/h W 4,1 C 7,0 C 0,0 km/h
08.12.2016 12:00 8,6 C 71 % 1030,7 hPa 0,0 l/m 0,0 km/h W 3,6 C 8,6 C 0,0 km/h
08.12.2016 13:00 6,6 C 73 % 1029,5 hPa 0,0 l/m 0,0 km/h W 2,1 C 6,6 C 0,0 km/h
08.12.2016 14:00 8,3 C 74 % 1029,4 hPa 0,0 l/m 0,0 km/h N-NO 3,9 C 8,3 C 0,0 km/h
08.12.2016 15:00 6,9 C 76 % 1028,9 hPa 0,0 l/m 0,0 km/h O-SO 3,0 C 6,9 C 0,0 km/h
08.12.2016 16:00 9,6 C 68 % 1029,0 hPa 0,0 l/m 0,0 km/h O-SO 4,0 C 9,6 C 0,0 km/h
08.12.2016 17:00 3,1 C 82 % 1029,2 hPa 0,0 l/m 0,0 km/h O-SO 0,3 C 3,1 C 0,0 km/h
08.12.2016 18:00 2,8 C 84 % 1029,5 hPa 0,0 l/m 0,0 km/h O-SO 0,4 C 2,8 C 0,0 km/h
08.12.2016 19:00 2,4 C 85 % 1029,0 hPa 0,0 l/m 0,0 km/h O-SO 0,1 C 2,4 C 0,0 km/h
08.12.2016 20:00 1,1 C 85 % 1029,2 hPa 0,0 l/m 0,0 km/h O-SO -1,1 C 1,1 C 0,0 km/h
08.12.2016 21:00 0,1 C 86 % 1029,1 hPa 0,0 l/m 0,0 km/h SO -2,0 C 0,1 C 0,0 km/h
08.12.2016 22:00 -0,2 C 86 % 1029,4 hPa 0,0 l/m 0,0 km/h SO -2,3 C -0,2 C 0,0 km/h
08.12.2016 23:00 -0,9 C 86 % 1029,8 hPa 0,0 l/m 0,0 km/h SO -2,9 C -0,9 C 0,0 km/h
09.12.2016 00:00 -1,8 C 86 % 1030,1 hPa 0,0 l/m 0,0 km/h SO -3,8 C -1,8 C 0,0 km/h
09.12.2016 01:00 -2,4 C 86 % 1029,9 hPa 0,0 l/m 0,0 km/h SO -4,4 C -2,4 C 0,0 km/h
09.12.2016 02:00 -2,1 C 86 % 1029,7 hPa 0,0 l/m 0,0 km/h SO -4,1 C -2,1 C 0,0 km/h
09.12.2016 03:00 -1,9 C 85 % 1029,9 hPa 0,0 l/m 0,0 km/h SO -4,1 C -1,9 C 0,0 km/h
09.12.2016 04:00 -1,7 C 85 % 1029,7 hPa 0,0 l/m 0,0 km/h O-SO -3,9 C -1,7 C 0,0 km/h
09.12.2016 05:00 -1,6 C 86 % 1029,6 hPa 0,0 l/m 0,0 km/h O-SO -3,6 C -1,6 C 0,0 km/h
09.12.2016 06:00 -1,3 C 86 % 1029,5 hPa 0,0 l/m 0,0 km/h O-SO -3,3 C -1,3 C 0,0 km/h
09.12.2016 07:00 -1,1 C 86 % 1029,5 hPa 0,0 l/m 0,0 km/h O-SO -3,1 C -1,1 C 0,0 km/h
09.12.2016 08:00 -1,6 C 86 % 1029,7 hPa 0,0 l/m 0,0 km/h O-SO -3,6 C -1,6 C 0,0 km/h
09.12.2016 09:00 3,2 C 86 % 1029,8 hPa 0,0 l/m 0,0 km/h N-NO 1,1 C 3,2 C 0,0 km/h
09.12.2016 10:00 7,4 C 78 % 1030,2 hPa 0,0 l/m 0,0 km/h N-NO 3,8 C 7,4 C 0,0 km/h
09.12.2016 11:00 9,7 C 68 % 1030,1 hPa 0,0 l/m 0,0 km/h N-NO 4,1 C 9,7 C 0,0 km/h
09.12.2016 12:00 14,6 C 57 % 1029,5 hPa 0,0 l/m 0,0 km/h NO 6,2 C 14,6 C 0,0 km/h
09.12.2016 13:00 14,3 C 54 % 1028,8 hPa 0,0 l/m 0,0 km/h NO 5,1 C 14,3 C 0,0 km/h
09.12.2016 14:00 13,9 C 48 % 1028,8 hPa 0,0 l/m 0,0 km/h NO 3,1 C 13,9 C 0,0 km/h
09.12.2016 15:00 10,9 C 54 % 1028,9 hPa 0,0 l/m 0,0 km/h NO 2,0 C 10,9 C 0,0 km/h
09.12.2016 16:00 8,8 C 61 % 1028,8 hPa 0,0 l/m 0,0 km/h O-SO 1,7 C 8,8 C 0,0 km/h
09.12.2016 17:00 4,7 C 70 % 1028,7 hPa 0,0 l/m 0,0 km/h O -0,3 C 4,7 C 0,0 km/h
09.12.2016 18:00 3,8 C 75 % 1028,3 hPa 0,0 l/m 0,0 km/h O -0,2 C 3,8 C 0,0 km/h
09.12.2016 19:00 3,2 C 76 % 1028,1 hPa 0,0 l/m 0,0 km/h O -0,6 C 3,2 C 0,0 km/h
09.12.2016 20:00 1,8 C 79 % 1028,3 hPa 0,0 l/m 0,0 km/h O -1,4 C 1,8 C 0,0 km/h
09.12.2016 21:00 0,8 C 81 % 1028,0 hPa 0,0 l/m 0,0 km/h O -2,1 C 0,8 C 0,0 km/h
09.12.2016 22:00 0,3 C 82 % 1027,6 hPa 0,0 l/m 0,0 km/h O -2,4 C 0,3 C 0,0 km/h
09.12.2016 23:00 -0,1 C 84 % 1027,3 hPa 0,0 l/m 0,0 km/h O -2,5 C -0,1 C 0,0 km/h
10.12.2016 00:00 -0,8 C 84 % 1027,0 hPa 0,0 l/m 0,0 km/h O -3,2 C -0,8 C 0,0 km/h
10.12.2016 01:00 -1,2 C 85 % 1026,6 hPa 0,0 l/m 0,0 km/h O -3,4 C -1,2 C 0,0 km/h
10.12.2016 02:00 -1,4 C 85 % 1026,3 hPa 0,0 l/m 0,0 km/h O -3,6 C -1,4 C 0,0 km/h
10.12.2016 03:00 -2,1 C 85 % 1026,1 hPa 0,0 l/m 0,0 km/h O -4,3 C -2,1 C 0,0 km/h
10.12.2016 04:00 -1,7 C 86 % 1025,8 hPa 0,0 l/m 0,0 km/h O -3,7 C -1,7 C 0,0 km/h
10.12.2016 05:00 -2,1 C 86 % 1025,3 hPa 0,0 l/m 0,0 km/h O -4,1 C -2,1 C 0,0 km/h
10.12.2016 06:00 -2,6 C 86 % 1025,2 hPa 0,0 l/m 0,0 km/h O -4,6 C -2,6 C 0,0 km/h
10.12.2016 07:00 -2,9 C 86 % 1025,2 hPa 0,0 l/m 0,0 km/h O -4,9 C -2,9 C 0,0 km/h
10.12.2016 08:00 -2,7 C 86 % 1025,0 hPa 0,0 l/m 0,0 km/h O -4,7 C -2,7 C 0,0 km/h
10.12.2016 09:00 2,4 C 85 % 1025,2 hPa 0,0 l/m 0,0 km/h O 0,1 C 2,4 C 0,0 km/h
10.12.2016 10:00 10,1 C 68 % 1025,7 hPa 0,0 l/m 0,0 km/h O 4,5 C 10,1 C 0,0 km/h
10.12.2016 11:00 12,5 C 59 % 1025,2 hPa 0,0 l/m 0,0 km/h O 4,7 C 12,5 C 0,0 km/h
10.12.2016 12:00 14,1 C 53 % 1024,7 hPa 0,0 l/m 0,0 km/h O-NO 4,7 C 14,1 C 0,0 km/h
10.12.2016 13:00 14,3 C 49 % 1024,2 hPa 0,0 l/m 0,0 km/h O-NO 3,7 C 14,3 C 0,0 km/h
10.12.2016 14:00 15,4 C 44 % 1024,0 hPa 0,0 l/m 0,0 km/h W 3,2 C 15,4 C 0,0 km/h
10.12.2016 15:00 16,5 C 42 % 1023,6 hPa 0,0 l/m 0,0 km/h W 3,5 C 16,5 C 0,0 km/h
10.12.2016 16:00 14,6 C 44 % 1023,7 hPa 0,0 l/m 0,0 km/h O-SO 2,5 C 14,6 C 0,0 km/h
10.12.2016 17:00 3,8 C 66 % 1023,8 hPa 0,0 l/m 0,0 km/h O-SO -2,0 C 3,8 C 0,0 km/h
10.12.2016 18:00 1,9 C 73 % 1023,6 hPa 0,0 l/m 0,0 km/h O-SO -2,4 C 1,9 C 0,0 km/h
10.12.2016 19:00 1,2 C 78 % 1023,5 hPa 0,0 l/m 0,0 km/h O-SO -2,2 C 1,2 C 0,0 km/h
10.12.2016 20:00 0,5 C 81 % 1022,9 hPa 0,0 l/m 0,0 km/h O-SO -2,4 C 0,5 C 0,0 km/h
10.12.2016 21:00 -0,2 C 81 % 1022,5 hPa 0,0 l/m 0,0 km/h O-SO -3,1 C -0,2 C 0,0 km/h
10.12.2016 22:00 -0,6 C 83 % 1022,1 hPa 0,0 l/m 0,0 km/h O-SO -3,1 C -0,6 C 0,0 km/h
10.12.2016 23:00 -1,2 C 84 % 1022,2 hPa 0,0 l/m 0,0 km/h O-SO -3,5 C -1,2 C 0,0 km/h
11.12.2016 00:00 -1,6 C 85 % 1022,2 hPa 0,0 l/m 0,0 km/h O -3,8 C -1,6 C 0,0 km/h
11.12.2016 01:00 -1,5 C 85 % 1021,7 hPa 0,0 l/m 0,0 km/h O -3,7 C -1,5 C 0,0 km/h
11.12.2016 02:00 -1,5 C 86 % 1021,3 hPa 0,0 l/m 0,0 km/h O-SO -3,5 C -1,5 C 0,0 km/h
11.12.2016 03:00 -2,1 C 86 % 1021,8 hPa 0,0 l/m 0,0 km/h O-SO -4,1 C -2,1 C 0,0 km/h
11.12.2016 04:00 -2,2 C 86 % 1021,4 hPa 0,0 l/m 0,0 km/h O-SO -4,2 C -2,2 C 0,0 km/h
11.12.2016 05:00 -1,6 C 86 % 1021,7 hPa 0,0 l/m 0,0 km/h O-NO -3,6 C -1,6 C 0,0 km/h
11.12.2016 06:00 -0,9 C 86 % 1021,2 hPa 0,0 l/m 0,0 km/h O-NO -2,9 C -0,9 C 0,0 km/h
11.12.2016 07:00 -1,5 C 86 % 1020,9 hPa 0,0 l/m 0,0 km/h O-SO -3,5 C -1,5 C 0,0 km/h
11.12.2016 08:00 0,1 C 86 % 1021,4 hPa 0,0 l/m 0,0 km/h N-NO -2,0 C 0,1 C 0,0 km/h
11.12.2016 09:00 3,3 C 86 % 1022,8 hPa 0,0 l/m 0,0 km/h NO 1,2 C 3,3 C 0,0 km/h
11.12.2016 10:00 3,0 C 86 % 1022,6 hPa 0,0 l/m 0,0 km/h N 0,9 C 3,0 C 0,0 km/h
11.12.2016 11:00 3,9 C 85 % 1022,6 hPa 0,0 l/m 0,0 km/h O 1,6 C 3,9 C 0,0 km/h
11.12.2016 12:00 4,9 C 86 % 1022,4 hPa 0,0 l/m 0,0 km/h O 2,8 C 4,9 C 0,0 km/h
11.12.2016 13:00 4,7 C 86 % 1022,5 hPa 0,0 l/m 0,0 km/h O 2,6 C 4,7 C 0,0 km/h
11.12.2016 14:00 4,7 C 86 % 1022,1 hPa 0,0 l/m 0,0 km/h O 2,6 C 4,7 C 0,0 km/h
11.12.2016 15:00 5,6 C 86 % 1022,5 hPa 0,0 l/m 0,0 km/h O 3,4 C 5,6 C 0,0 km/h
11.12.2016 16:00 4,5 C 85 % 1022,8 hPa 0,0 l/m 0,0 km/h O 2,2 C 4,5 C 0,0 km/h
11.12.2016 17:00 4,3 C 86 % 1023,0 hPa 0,0 l/m 0,0 km/h O 2,2 C 4,3 C 0,0 km/h
11.12.2016 18:00 3,4 C 86 % 1023,0 hPa 0,0 l/m 0,0 km/h O 1,3 C 3,4 C 0,0 km/h
11.12.2016 19:00 3,5 C 86 % 1023,2 hPa 0,0 l/m 0,0 km/h O 1,4 C 3,5 C 0,0 km/h
11.12.2016 20:00 3,4 C 86 % 1023,1 hPa 0,0 l/m 0,0 km/h O-NO 1,3 C 3,4 C 0,0 km/h
11.12.2016 21:00 2,1 C 86 % 1023,0 hPa 0,0 l/m 0,0 km/h O-NO 0,0 C 2,1 C 0,0 km/h
11.12.2016 22:00 1,3 C 85 % 1022,9 hPa 0,0 l/m 0,0 km/h O-NO -0,9 C 1,3 C 0,0 km/h
11.12.2016 23:00 1,2 C 85 % 1023,3 hPa 0,0 l/m 0,0 km/h O-NO -1,0 C 1,2 C 0,0 km/h
Min-Datum _ 05.12.16 10.12.16 11.12.16 - 05.12.16 - 05.12.16 05.12.16 05.12.16
_ Min-Zeit 08:10 15:10 07:10 - 00:10 - 08:10 08:10 00:10
Minimum _ -6,5 C 42 % 1020,9 hPa - 0,0 km/h - -8,3 C -6,5 C 0,0 km/h
Max-Datum _ 10.12.16 05.12.16 07.12.16 05.12.16 05.12.16 - 09.12.16 10.12.16 05.12.16
_ Max-Zeit 15:10 07:10 21:10 00:10 00:10 - 12:10 15:10 00:10
Maximum _ 16,5 C 87 % 1033,0 hPa 0,0 l/m 0,0 km/h
N-NW
- 6,2 C 16,5 C 0,0 km/h
N-NW
Durchschnitt _ 0,5 C 81 % 1027,3 hPa #0,0 l/m 0,0 km/h O -2,5 C 0,5 C 0,0 km/h
www.sexauwetter.de